createdAt,value
2019-05-18T00:00:33.463Z,10.87
2019-05-18T00:03:38.675Z,10.85
2019-05-18T00:06:43.874Z,10.96
2019-05-18T00:09:49.085Z,10.94
2019-05-18T00:12:54.299Z,10.89
2019-05-18T00:15:59.475Z,10.85
2019-05-18T00:19:04.641Z,10.80
2019-05-18T00:22:09.751Z,10.79
2019-05-18T00:25:16.095Z,10.79
2019-05-18T00:28:21.264Z,10.76
2019-05-18T00:31:26.434Z,10.76
2019-05-18T00:34:31.667Z,10.86
2019-05-18T00:37:36.916Z,10.82
2019-05-18T00:40:42.111Z,10.86
2019-05-18T00:43:47.239Z,10.78
2019-05-18T00:46:52.404Z,10.76
2019-05-18T00:49:57.547Z,10.72
2019-05-18T00:53:02.956Z,10.64
2019-05-18T00:56:08.280Z,10.60
2019-05-18T00:59:16.098Z,10.58
2019-05-18T01:02:20.406Z,10.58
2019-05-18T01:05:25.519Z,10.64
2019-05-18T01:08:30.670Z,10.54
2019-05-18T01:11:36.098Z,10.54
2019-05-18T01:14:41.269Z,10.53
2019-05-18T01:17:57.033Z,10.51
2019-05-18T01:20:53.324Z,10.50
2019-05-18T01:23:58.452Z,10.51
2019-05-18T01:27:03.734Z,10.47
2019-05-18T01:30:10.629Z,10.45
2019-05-18T01:33:15.952Z,10.49
2019-05-18T01:36:21.105Z,10.45
2019-05-18T01:39:26.266Z,10.43
2019-05-18T01:42:31.504Z,10.47
2019-05-18T01:45:36.681Z,10.42
2019-05-18T01:48:41.758Z,10.41
2019-05-18T01:51:46.847Z,10.51
2019-05-18T01:54:52.035Z,10.52
2019-05-18T01:57:57.199Z,10.52
2019-05-18T02:01:02.293Z,10.39
2019-05-18T02:04:07.433Z,10.43
2019-05-18T02:07:12.547Z,10.33
2019-05-18T02:10:17.845Z,10.34
2019-05-18T02:13:24.098Z,10.25
2019-05-18T02:16:29.231Z,10.11
2019-05-18T02:19:34.354Z,10.03
2019-05-18T02:22:39.538Z,9.92
2019-05-18T02:25:44.675Z,9.87
2019-05-18T02:28:49.843Z,9.86
2019-05-18T02:31:54.996Z,9.84
2019-05-18T02:35:00.162Z,9.80
2019-05-18T02:38:17.890Z,9.86
2019-05-18T02:41:23.071Z,9.99
2019-05-18T02:44:28.198Z,10.03
2019-05-18T02:47:33.331Z,10.03
2019-05-18T02:50:38.517Z,10.02
2019-05-18T02:53:43.716Z,10.03
2019-05-18T02:56:48.928Z,9.94
2019-05-18T02:59:54.144Z,9.89
2019-05-18T03:02:59.255Z,9.91
2019-05-18T03:06:04.589Z,9.90
2019-05-18T03:09:09.955Z,9.83
2019-05-18T03:12:15.131Z,9.85
2019-05-18T03:15:20.340Z,9.81
2019-05-18T03:18:25.473Z,9.92
2019-05-18T03:21:30.666Z,9.83
2019-05-18T03:24:35.855Z,9.76
2019-05-18T03:27:41.156Z,9.62
2019-05-18T03:30:46.460Z,9.70
2019-05-18T03:33:51.576Z,9.98
2019-05-18T03:36:56.736Z,9.80
2019-05-18T03:40:01.810Z,9.78
2019-05-18T03:43:08.124Z,9.71
2019-05-18T03:46:13.456Z,9.68
2019-05-18T03:49:26.609Z,9.71
2019-05-18T03:52:25.531Z,9.67
2019-05-18T03:55:30.699Z,9.66
2019-05-18T03:58:35.902Z,9.61
2019-05-18T04:01:41.041Z,9.70
2019-05-18T04:04:46.238Z,9.80
2019-05-18T04:07:51.376Z,9.76
2019-05-18T04:10:56.768Z,9.93
2019-05-18T04:14:01.956Z,10.03
2019-05-18T04:17:07.150Z,10.12
2019-05-18T04:20:12.521Z,10.12
2019-05-18T04:23:17.673Z,10.05
2019-05-18T04:26:22.847Z,10.06
2019-05-18T04:29:27.973Z,10.12
2019-05-18T04:32:33.109Z,10.20
2019-05-18T04:35:38.296Z,10.28
2019-05-18T04:38:43.598Z,10.23
2019-05-18T04:41:48.775Z,10.35
2019-05-18T04:44:53.932Z,10.19
2019-05-18T04:47:59.121Z,10.30
2019-05-18T04:51:04.257Z,10.29
2019-05-18T04:54:09.400Z,10.61
2019-05-18T04:57:14.597Z,10.66
2019-05-18T05:00:19.894Z,10.65
2019-05-18T05:03:25.158Z,11.19
2019-05-18T05:06:30.295Z,11.45
2019-05-18T05:09:35.450Z,10.95
2019-05-18T05:12:40.622Z,11.00
2019-05-18T05:15:45.770Z,10.99
2019-05-18T05:18:50.857Z,10.93
2019-05-18T05:21:56.081Z,10.96
2019-05-18T05:25:02.640Z,10.99
2019-05-18T05:28:07.941Z,11.03
2019-05-18T05:31:13.265Z,10.82
2019-05-18T05:34:18.372Z,10.93
2019-05-18T05:37:23.566Z,11.14
2019-05-18T05:40:28.686Z,11.00
2019-05-18T05:43:33.891Z,11.07
2019-05-18T05:46:39.058Z,11.27
2019-05-18T05:49:44.326Z,11.15
2019-05-18T05:52:49.502Z,11.58
2019-05-18T05:55:54.606Z,12.50
2019-05-18T05:58:59.756Z,12.98
2019-05-18T06:02:04.943Z,12.80
2019-05-18T06:05:10.326Z,12.93
2019-05-18T06:08:15.552Z,13.14
2019-05-18T06:11:20.695Z,12.89
2019-05-18T06:14:26.776Z,13.43
2019-05-18T06:17:31.914Z,14.46
2019-05-18T06:20:50.494Z,15.76
2019-05-18T06:23:43.981Z,14.87
2019-05-18T06:26:49.198Z,14.46
2019-05-18T06:29:54.383Z,14.39
2019-05-18T06:32:59.572Z,14.32
2019-05-18T06:36:04.897Z,15.52
2019-05-18T06:39:10.080Z,16.17
2019-05-18T06:42:15.433Z,16.02
2019-05-18T06:45:20.770Z,15.80
2019-05-18T06:48:25.907Z,15.80
2019-05-18T06:51:32.139Z,15.89
2019-05-18T06:54:37.526Z,15.71
2019-05-18T06:57:43.129Z,16.32
2019-05-18T07:00:48.246Z,16.55
2019-05-18T07:03:53.367Z,16.57
2019-05-18T07:06:58.671Z,16.01
2019-05-18T07:10:03.915Z,16.54
2019-05-18T07:13:09.162Z,16.48
2019-05-18T07:16:14.437Z,16.79
2019-05-18T07:19:19.668Z,17.12
2019-05-18T07:22:25.577Z,16.30
2019-05-18T07:25:30.792Z,16.86
2019-05-18T07:28:35.963Z,17.00
2019-05-18T07:31:41.169Z,17.48
2019-05-18T07:34:46.394Z,17.91
2019-05-18T07:37:51.600Z,17.53
2019-05-18T07:40:56.787Z,17.75
2019-05-18T07:44:03.247Z,18.02
2019-05-18T07:47:08.544Z,17.22
2019-05-18T07:50:14.364Z,17.60
2019-05-18T07:53:19.597Z,18.26
2019-05-18T07:56:24.815Z,18.26
2019-05-18T07:59:30.059Z,18.04
2019-05-18T08:02:35.515Z,18.26
2019-05-18T08:05:40.976Z,17.92
2019-05-18T08:08:46.284Z,17.59
2019-05-18T08:11:51.476Z,18.21
2019-05-18T08:14:56.817Z,17.79
2019-05-18T08:18:01.981Z,18.45
2019-05-18T08:21:07.150Z,18.90
2019-05-18T08:24:12.420Z,18.26
2019-05-18T08:27:17.790Z,19.05
2019-05-18T08:30:23.029Z,19.05
2019-05-18T08:33:28.283Z,18.86
2019-05-18T08:36:33.501Z,19.08
2019-05-18T08:39:38.627Z,19.08
2019-05-18T08:42:43.806Z,19.10
2019-05-18T08:45:49.076Z,19.84
2019-05-18T08:48:55.044Z,20.07
2019-05-18T08:52:08.435Z,19.85
2019-05-18T08:55:08.294Z,19.74
2019-05-18T08:58:13.453Z,19.67
2019-05-18T09:01:18.658Z,19.94
2019-05-18T09:04:23.891Z,19.93
2019-05-18T09:07:29.094Z,19.89
2019-05-18T09:10:34.268Z,19.64
2019-05-18T09:13:39.450Z,20.28
2019-05-18T09:16:44.612Z,20.30
2019-05-18T09:19:50.747Z,20.38
2019-05-18T09:22:55.961Z,20.74
2019-05-18T09:26:01.080Z,21.07
2019-05-18T09:29:06.312Z,21.09
2019-05-18T09:32:11.658Z,20.99
2019-05-18T09:35:17.801Z,21.03
2019-05-18T09:38:23.328Z,21.18
2019-05-18T09:41:28.685Z,21.09
2019-05-18T09:44:33.858Z,21.71
2019-05-18T09:47:40.182Z,21.52
2019-05-18T09:50:45.383Z,21.82
2019-05-18T09:53:51.879Z,21.76
2019-05-18T09:56:57.295Z,21.85
2019-05-18T10:00:02.594Z,21.88
2019-05-18T10:03:07.768Z,21.93
2019-05-18T10:06:12.935Z,21.74
2019-05-18T10:09:18.166Z,21.71
2019-05-18T10:12:24.818Z,21.49
2019-05-18T10:15:30.231Z,22.08
2019-05-18T10:18:35.414Z,21.54
2019-05-18T10:21:40.593Z,22.12
2019-05-18T10:24:45.794Z,22.33
2019-05-18T10:27:50.986Z,21.57
2019-05-18T10:30:56.184Z,22.33
2019-05-18T10:34:01.470Z,22.26
2019-05-18T10:37:07.793Z,22.68
2019-05-18T10:40:13.536Z,22.35
2019-05-18T10:43:18.697Z,22.14
2019-05-18T10:46:23.863Z,22.22
2019-05-18T10:49:29.084Z,22.43
2019-05-18T10:52:34.304Z,22.76
2019-05-18T10:55:39.591Z,22.53
2019-05-18T10:58:44.839Z,22.77
2019-05-18T11:01:49.997Z,23.10
2019-05-18T11:04:55.210Z,22.49
2019-05-18T11:08:00.418Z,22.69
2019-05-18T11:11:05.627Z,22.74
2019-05-18T11:14:10.960Z,22.90
2019-05-18T11:17:16.151Z,23.39
2019-05-18T11:20:21.410Z,22.70
2019-05-18T11:23:26.569Z,22.85
2019-05-18T11:26:31.747Z,23.23
2019-05-18T11:29:36.882Z,23.39
2019-05-18T11:32:42.023Z,23.12
2019-05-18T11:35:47.277Z,23.44
2019-05-18T11:38:52.446Z,22.65
2019-05-18T11:41:57.699Z,23.31
2019-05-18T11:45:02.867Z,22.84
2019-05-18T11:48:08.172Z,23.08
2019-05-18T11:51:13.400Z,23.89
2019-05-18T11:54:18.559Z,23.93
2019-05-18T11:57:23.733Z,23.61
2019-05-18T12:00:29.425Z,23.92
2019-05-18T12:03:34.545Z,24.07
2019-05-18T12:06:39.752Z,23.40
2019-05-18T12:09:47.466Z,23.29
2019-05-18T12:12:51.812Z,23.58
2019-05-18T12:15:57.016Z,23.90
2019-05-18T12:19:02.206Z,23.09
2019-05-18T12:22:07.421Z,23.67
2019-05-18T12:25:13.115Z,23.90
2019-05-18T12:28:18.290Z,23.95
2019-05-18T12:31:23.477Z,24.15
2019-05-18T12:34:28.678Z,24.19
2019-05-18T12:37:33.945Z,23.83
2019-05-18T12:40:39.120Z,24.00
2019-05-18T12:43:44.349Z,24.32
2019-05-18T12:46:49.429Z,24.38
2019-05-18T12:49:54.685Z,24.69
2019-05-18T12:52:59.752Z,24.38
2019-05-18T12:56:04.975Z,24.57
2019-05-18T12:59:10.244Z,24.59
2019-05-18T13:02:15.537Z,24.65
2019-05-18T13:05:20.850Z,24.34
2019-05-18T13:08:26.960Z,24.37
2019-05-18T13:11:32.108Z,24.54
2019-05-18T13:14:37.321Z,24.18
2019-05-18T13:17:42.467Z,23.83
2019-05-18T13:20:47.685Z,23.85
2019-05-18T13:23:52.803Z,23.87
2019-05-18T13:26:58.192Z,24.30
2019-05-18T13:30:03.446Z,24.66
2019-05-18T13:33:08.693Z,24.63
2019-05-18T13:36:13.918Z,24.31
2019-05-18T13:39:19.087Z,24.06
2019-05-18T13:42:24.612Z,24.54
2019-05-18T13:45:29.819Z,24.00
2019-05-18T13:48:34.980Z,23.95
2019-05-18T13:51:40.138Z,23.85
2019-05-18T13:55:01.211Z,23.93
2019-05-18T13:57:52.235Z,24.34
2019-05-18T14:00:57.409Z,23.92
2019-05-18T14:04:02.636Z,24.41
2019-05-18T14:07:07.795Z,24.71
2019-05-18T14:10:14.611Z,24.57
2019-05-18T14:13:19.806Z,24.36
2019-05-18T14:16:24.982Z,24.51
2019-05-18T14:19:30.305Z,25.09
2019-05-18T14:22:35.458Z,25.03
2019-05-18T14:25:40.606Z,25.35
2019-05-18T14:28:45.744Z,24.88
2019-05-18T14:31:50.944Z,24.93
2019-05-18T14:34:56.179Z,24.43
2019-05-18T14:38:01.401Z,24.45
2019-05-18T14:41:06.564Z,25.38
2019-05-18T14:44:11.767Z,25.24
2019-05-18T14:47:16.981Z,24.64
2019-05-18T14:50:22.316Z,24.59
2019-05-18T14:53:27.454Z,24.62
2019-05-18T14:56:32.643Z,25.04
2019-05-18T14:59:37.771Z,25.11
2019-05-18T15:02:42.935Z,25.21
2019-05-18T15:05:48.104Z,25.11
2019-05-18T15:08:53.292Z,24.67
2019-05-18T15:11:58.434Z,24.26
2019-05-18T15:15:03.709Z,25.16
2019-05-18T15:18:09.618Z,25.43
2019-05-18T15:21:14.762Z,25.08
2019-05-18T15:24:20.044Z,25.14
2019-05-18T15:27:25.441Z,25.15
2019-05-18T15:30:30.608Z,25.23
2019-05-18T15:33:35.751Z,24.75
2019-05-18T15:36:40.985Z,24.83
2019-05-18T15:39:46.160Z,24.81
2019-05-18T15:42:51.498Z,24.54
2019-05-18T15:45:56.628Z,24.91
2019-05-18T15:49:01.967Z,24.64
2019-05-18T15:52:07.197Z,24.24
2019-05-18T15:55:12.768Z,24.44
2019-05-18T15:58:17.925Z,24.40
2019-05-18T16:01:23.095Z,24.78
2019-05-18T16:04:28.304Z,25.79
2019-05-18T16:07:33.537Z,25.61
2019-05-18T16:10:38.744Z,25.54
2019-05-18T16:13:43.990Z,24.86
2019-05-18T16:16:49.332Z,25.34
2019-05-18T16:19:55.042Z,25.10
2019-05-18T16:23:00.316Z,25.19
2019-05-18T16:26:20.350Z,24.75
2019-05-18T16:29:12.479Z,24.74
2019-05-18T16:32:17.716Z,24.70
2019-05-18T16:35:24.002Z,24.43
2019-05-18T16:38:29.190Z,24.42
2019-05-18T16:41:34.480Z,24.34
2019-05-18T16:44:40.181Z,23.92
2019-05-18T16:47:45.614Z,23.77
2019-05-18T16:50:50.833Z,23.74
2019-05-18T16:53:55.920Z,24.43
2019-05-18T16:57:01.116Z,24.15
2019-05-18T17:00:06.620Z,23.97
2019-05-18T17:03:11.985Z,23.81
2019-05-18T17:06:17.213Z,23.43
2019-05-18T17:09:22.463Z,23.31
2019-05-18T17:12:27.719Z,23.27
2019-05-18T17:15:32.881Z,23.63
2019-05-18T17:18:38.176Z,23.22
2019-05-18T17:21:43.604Z,23.16
2019-05-18T17:24:48.859Z,22.87
2019-05-18T17:27:54.059Z,22.70
2019-05-18T17:30:59.262Z,22.52
2019-05-18T17:34:04.572Z,22.47
2019-05-18T17:37:09.758Z,22.03
2019-05-18T17:40:16.353Z,20.76
2019-05-18T17:43:21.573Z,19.96
2019-05-18T17:46:26.974Z,19.73
2019-05-18T17:49:32.211Z,19.15
2019-05-18T17:52:37.375Z,18.83
2019-05-18T17:55:42.614Z,18.73
2019-05-18T17:58:47.853Z,18.60
2019-05-18T18:01:53.279Z,18.13
2019-05-18T18:04:58.720Z,18.13
2019-05-18T18:08:04.056Z,17.83
2019-05-18T18:11:11.901Z,17.83
2019-05-18T18:14:16.328Z,17.77
2019-05-18T18:17:22.804Z,17.71
2019-05-18T18:20:28.023Z,17.68
2019-05-18T18:23:33.364Z,17.69
2019-05-18T18:26:38.876Z,17.62
2019-05-18T18:29:44.178Z,16.88
2019-05-18T18:32:49.373Z,16.34
2019-05-18T18:35:54.749Z,16.18
2019-05-18T18:39:00.043Z,15.93
2019-05-18T18:42:05.219Z,15.73
2019-05-18T18:45:11.453Z,15.49
2019-05-18T18:48:16.712Z,15.34
2019-05-18T18:51:21.862Z,15.04
2019-05-18T18:54:27.110Z,14.84
2019-05-18T18:57:41.586Z,14.67
2019-05-18T19:00:51.276Z,14.65
2019-05-18T19:03:56.459Z,14.83
2019-05-18T19:07:01.666Z,14.94
2019-05-18T19:10:07.286Z,14.94
2019-05-18T19:13:50.519Z,14.88
2019-05-18T19:17:03.495Z,15.16
2019-05-18T19:20:09.269Z,14.83
2019-05-18T19:23:14.352Z,14.81
2019-05-18T19:26:19.717Z,14.64
2019-05-18T19:29:24.944Z,14.50
2019-05-18T19:32:33.724Z,14.55
2019-05-18T19:35:39.002Z,14.33
2019-05-18T19:38:44.214Z,14.59
2019-05-18T19:41:49.371Z,14.51
2019-05-18T19:44:54.659Z,14.35
2019-05-18T19:47:59.952Z,14.28
2019-05-18T19:51:05.223Z,14.05
2019-05-18T19:54:10.486Z,13.96
2019-05-18T19:57:15.635Z,14.01
2019-05-18T20:00:21.206Z,14.11
2019-05-18T20:03:26.567Z,13.97
2019-05-18T20:06:31.888Z,13.85
2019-05-18T20:09:37.117Z,13.87
2019-05-18T20:12:42.476Z,13.83
2019-05-18T20:15:47.651Z,13.89
2019-05-18T20:18:52.891Z,13.77
2019-05-18T20:21:58.042Z,13.83
2019-05-18T20:25:03.312Z,13.85
2019-05-18T20:28:22.668Z,13.90
2019-05-18T20:31:15.426Z,14.19
2019-05-18T20:34:20.694Z,14.34
2019-05-18T20:37:25.887Z,14.98
2019-05-18T20:40:31.174Z,14.77
2019-05-18T20:43:36.617Z,14.61
2019-05-18T20:46:41.783Z,14.63
2019-05-18T20:49:46.936Z,14.38
2019-05-18T20:52:52.139Z,14.16
2019-05-18T20:55:57.306Z,13.82
2019-05-18T20:59:02.484Z,13.83
2019-05-18T21:02:07.584Z,13.71
2019-05-18T21:05:13.082Z,13.71
2019-05-18T21:08:18.224Z,13.68
2019-05-18T21:11:23.388Z,13.72
2019-05-18T21:14:28.541Z,13.74
2019-05-18T21:17:33.875Z,13.77
2019-05-18T21:20:39.194Z,13.71
2019-05-18T21:23:44.437Z,13.57
2019-05-18T21:26:49.692Z,13.50
2019-05-18T21:29:54.974Z,13.45
2019-05-18T21:33:00.109Z,13.47
2019-05-18T21:36:05.275Z,13.47
2019-05-18T21:39:10.668Z,13.48
2019-05-18T21:42:15.879Z,13.63
2019-05-18T21:45:21.337Z,13.80
2019-05-18T21:48:26.500Z,13.78
2019-05-18T21:51:31.632Z,13.65
2019-05-18T21:54:36.921Z,13.59
2019-05-18T21:57:42.122Z,13.59
2019-05-18T22:00:49.632Z,13.45
2019-05-18T22:03:54.881Z,13.31
2019-05-18T22:07:00.068Z,13.38
2019-05-18T22:10:05.957Z,13.25
2019-05-18T22:13:11.184Z,13.23
2019-05-18T22:16:16.402Z,13.32
2019-05-18T22:19:21.583Z,13.23
2019-05-18T22:22:26.672Z,13.26
2019-05-18T22:25:31.884Z,13.17
2019-05-18T22:28:37.060Z,13.06
2019-05-18T22:31:42.195Z,13.09
2019-05-18T22:34:47.412Z,13.03
2019-05-18T22:37:52.556Z,13.01
2019-05-18T22:40:57.750Z,13.03
2019-05-18T22:44:02.878Z,13.13
2019-05-18T22:47:08.101Z,12.91
2019-05-18T22:50:13.408Z,12.79
2019-05-18T22:53:18.592Z,12.77
2019-05-18T22:56:23.740Z,12.66
2019-05-18T22:59:29.014Z,12.84
2019-05-18T23:02:34.402Z,12.76
2019-05-18T23:05:39.514Z,12.59
2019-05-18T23:08:44.781Z,12.52
2019-05-18T23:11:49.993Z,12.52
2019-05-18T23:14:55.137Z,12.48
2019-05-18T23:18:00.357Z,12.42
2019-05-18T23:21:05.478Z,12.42
2019-05-18T23:24:10.849Z,12.38
2019-05-18T23:27:15.980Z,12.47
2019-05-18T23:30:21.211Z,12.43
2019-05-18T23:33:33.891Z,12.38
2019-05-18T23:36:41.106Z,12.38
2019-05-18T23:39:50.090Z,12.31
2019-05-18T23:42:55.187Z,12.31
2019-05-18T23:46:00.342Z,12.23
2019-05-18T23:49:10.821Z,12.17
2019-05-18T23:52:12.474Z,12.15
2019-05-18T23:55:17.694Z,12.07
2019-05-18T23:58:22.868Z,12.07
